vecher.net alexa rank chart, vecher.net alexa rank daily changes

vecher.net alexa rank chart, vecher.net alexa rank daily changes

vecher.net
Actual rank:
300 363

RANK HISTORY

Date Rank Diff
2017/11/24 300 363 -559
2017/11/23 300 922 -1 689
2017/11/22 302 611 -1 256
2017/11/21 303 867 +2 248
2017/11/20 301 619 +35 194
2017/11/19 266 425 -3 109
2017/11/18 269 534 +3 525
2017/11/17 266 009 +1 038
2017/11/16 264 971 +1 829
2017/11/15 263 142 -6 310
2017/11/14 269 452 +448
2017/11/13 269 004 -6 003
2017/11/12 275 007 -2 062
2017/11/11 277 069 +665
2017/11/10 276 404 +1 328
2017/11/09 275 076 +2 852
2017/11/08 272 224 +4 522
2017/11/07 267 702 -4 588
2017/11/06 272 290 -8 043
2017/11/05 280 333 -20
2017/11/04 280 353 -428
2017/11/03 280 781 -1 845
2017/11/02 282 626 +2 051
2017/11/01 280 575 -1 329
2017/10/31 281 904 -4 855
2017/10/30 286 759 -6 222
2017/10/29 292 981 +4 016
2017/10/28 288 965 +2 283
2017/10/27 286 682 +4 234
2017/10/26 282 448 -433
2017/10/25 282 881 +4 760
2017/10/24 278 121 -770
2017/10/23 278 891 +450
2017/10/22 278 441 -1 293
2017/10/21 279 734 -11 375
2017/10/20 291 109 -35 413
2017/10/19 326 522 +11 106
2017/10/18 315 416 +17 381
2017/10/17 298 035 +1 243
2017/10/16 296 792 +9 684
2017/10/14 287 108 +976
2017/10/13 286 132 +8 646
2017/10/12 277 486 +1 343
2017/10/11 276 143 +4 447
2017/10/10 271 696 +12 196
2017/10/09 259 500 +725
2017/10/08 258 775 -2 316
2017/10/07 261 091 +8 220
2017/10/06 252 871 +6 489
2017/10/05 246 382 +4 210
2017/10/04 242 172 +3 459
2017/10/03 238 713 +3 617
2017/10/02 235 096 -3 258
2017/10/01 238 354 +3 278
2017/09/30 235 076 +8 499
2017/09/29 226 577 +7 129
2017/09/28 219 448 +3 249
2017/09/27 216 199 -442
2017/09/26 216 641 +3 459
2017/09/25 213 182

WIDGET FOR YOUR SITE

DOMAINS WITH THE NEAREST RANK

Domain Rank
sarang.net 300 358
audimax.de 300 359
arena.im 300 360
cryptobotanika.ru 300 361
indianmba.com 300 362
vecher.net 300 363
ilovers.sinaapp.com 300 364
thealmostdone.com 300 365
tamilnaducollegeevents.in 300 366
woobull.com 300 367
athenaes-siegel.at 300 368

DOMAINS WITH THE NEAREST RANK BY TLD .net

Domain Rank
sportsmith.net 300 273
600rr.net 300 288
socnnsexo.net 300 302
ibnouf.net 300 348
sarang.net 300 358
vecher.net 300 363
secure-cms.net 300 377
ecommercepartners.net 300 426
kuwarangal.net 300 432
sonokinetic.net 300 435
ir2media.net 300 441